Time;durP1;ratioP1;P1;durP2;ratioP2;P2;SDS_P1;SDS_P2;PMS_P1;PMS_P2;Temp;Humidity;BMP_temperature;BMP_pressure;BME280_temperature;BME280_humidity;BME280_pressure;Samples;Min_cycle;Max_cycle;Signal;HPM_P1;HPM_P2
2023/08/01 00:00:08;;;;;;;2.55;1.23;;;;;;;15.62;100.00;99119.81;677353;29;861;-62
2023/08/01 00:00:34;;;;;;;3.33;1.20;;;;;;;15.60;100.00;99123.47;678399;29;755;-62
2023/08/01 00:00:56;;;;;;;2.40;1.10;;;;;;;15.59;100.00;99121.75;673395;29;4578;-62
2023/08/01 00:01:16;;;;;;;3.15;1.20;;;;;;;15.63;100.00;99125.94;674909;29;1219;-59
2023/08/01 00:01:36;;;;;;;3.00;1.40;;;;;;;15.62;100.00;99125.09;675352;29;985;-61
2023/08/01 00:01:57;;;;;;;3.17;1.17;;;;;;;15.64;100.00;99128.50;674165;29;1850;-62
2023/08/01 00:02:17;;;;;;;2.28;1.10;;;;;;;15.69;100.00;99128.28;676844;29;767;-61
2023/08/01 00:02:39;;;;;;;2.27;1.10;;;;;;;15.65;100.00;99124.09;676879;29;977;-60
2023/08/01 00:02:59;;;;;;;2.45;1.35;;;;;;;15.69;100.00;99127.41;676771;29;1796;-61
2023/08/01 00:03:19;;;;;;;2.03;1.20;;;;;;;15.71;100.00;99122.94;678379;29;909;-62
2023/08/01 00:03:40;;;;;;;2.60;1.23;;;;;;;15.68;100.00;99131.84;678904;29;869;-62
2023/08/01 00:04:00;;;;;;;3.40;1.40;;;;;;;15.64;100.00;99125.84;679857;28;4487;-61
2023/08/01 00:04:20;;;;;;;2.87;1.20;;;;;;;15.62;100.00;99122.47;680862;28;1007;-61
2023/08/01 00:04:41;;;;;;;2.50;1.13;;;;;;;15.61;100.00;99122.53;680151;29;1259;-60
2023/08/01 00:05:01;;;;;;;3.00;1.20;;;;;;;15.62;100.00;99127.72;680412;28;1711;-61
2023/08/01 00:05:22;;;;;;;2.60;1.20;;;;;;;15.68;100.00;99125.72;681459;29;1316;-60
2023/08/01 00:05:45;;;;;;;2.83;1.10;;;;;;;15.69;100.00;99127.41;679102;29;857;-60
2023/08/01 00:06:05;;;;;;;3.10;1.10;;;;;;;15.66;100.00;99121.38;677007;29;1453;-61
2023/08/01 00:06:26;;;;;;;3.17;1.20;;;;;;;15.66;100.00;99116.09;677793;29;1915;-61
2023/08/01 00:06:46;;;;;;;2.75;1.20;;;;;;;15.64;100.00;99123.22;678004;28;4485;-61
2023/08/01 00:07:07;;;;;;;2.77;1.20;;;;;;;15.63;100.00;99115.41;676696;29;1880;-60
2023/08/01 00:07:27;;;;;;;3.25;1.23;;;;;;;15.63;100.00;99118.03;677291;29;965;-60
2023/08/01 00:07:48;;;;;;;2.97;1.23;;;;;;;15.62;100.00;99116.34;679009;29;826;-62
2023/08/01 00:08:08;;;;;;;3.10;1.20;;;;;;;15.62;100.00;99118.97;677422;29;1614;-62
2023/08/01 00:08:28;;;;;;;2.30;1.00;;;;;;;15.63;100.00;99125.94;678558;29;1004;-62
2023/08/01 00:08:49;;;;;;;2.97;1.10;;;;;;;15.60;100.00;99118.19;680395;28;1294;-61
2023/08/01 00:09:09;;;;;;;3.33;1.20;;;;;;;15.57;100.00;99113.94;679506;28;1576;-62
2023/08/01 00:09:29;;;;;;;2.97;1.23;;;;;;;15.59;100.00;99124.38;680685;29;787;-61
2023/08/01 00:09:50;;;;;;;2.33;1.05;;;;;;;15.58;100.00;99117.44;678688;29;4386;-62
2023/08/01 00:10:10;;;;;;;2.17;1.00;;;;;;;15.57;100.00;99116.56;680188;28;1848;-62
2023/08/01 00:10:31;;;;;;;2.13;1.10;;;;;;;15.62;100.00;99113.72;680566;28;1075;-63
2023/08/01 00:10:51;;;;;;;2.30;1.10;;;;;;;15.71;100.00;99122.94;677589;29;798;-61
2023/08/01 00:11:14;;;;;;;3.03;1.17;;;;;;;15.73;100.00;99121.94;675922;29;1720;-62
2023/08/01 00:11:34;;;;;;;4.25;1.30;;;;;;;15.71;100.00;99120.28;678019;29;1232;-62
2023/08/01 00:11:55;;;;;;;2.87;1.20;;;;;;;15.68;100.00;99115.19;676814;29;1770;-62
2023/08/01 00:12:15;;;;;;;2.78;1.20;;;;;;;15.67;100.00;99122.22;678263;29;1429;-62
2023/08/01 00:12:35;;;;;;;2.73;1.20;;;;;;;15.66;100.00;99124.00;676623;29;715;-62
2023/08/01 00:12:56;;;;;;;3.03;1.30;;;;;;;15.63;100.00;99113.63;676002;29;4382;-61
2023/08/01 00:13:16;;;;;;;3.07;1.27;;;;;;;15.68;100.00;99117.81;678648;29;1434;-61
2023/08/01 00:13:37;;;;;;;3.08;1.20;;;;;;;15.66;100.00;99121.38;678210;29;893;-61
2023/08/01 00:13:58;;;;;;;3.37;1.10;;;;;;;15.63;100.00;99116.28;677161;29;1853;-62
2023/08/01 00:14:20;;;;;;;3.78;1.30;;;;;;;15.63;100.00;99115.41;677763;29;866;-60
2023/08/01 00:14:40;;;;;;;3.33;1.30;;;;;;;15.62;100.00;99111.94;677932;29;917;-62
2023/08/01 00:15:01;;;;;;;2.80;1.38;;;;;;;15.61;100.00;99115.47;675613;29;1585;-62
2023/08/01 00:15:22;;;;;;;3.35;1.50;;;;;;;15.61;100.00;99115.47;678778;29;1415;-60
2023/08/01 00:15:45;;;;;;;3.08;1.27;;;;;;;15.60;100.00;99107.66;677976;29;4399;-60
2023/08/01 00:16:06;;;;;;;2.80;1.20;;;;;;;15.60;100.00;99111.16;673544;29;1714;-60
2023/08/01 00:16:26;;;;;;;3.50;1.38;;;;;;;15.60;100.00;99111.16;675061;29;3655;-61
2023/08/01 00:16:48;;;;;;;2.97;1.20;;;;;;;15.60;100.00;99115.56;676110;29;855;-61
2023/08/01 00:17:08;;;;;;;2.47;1.30;;;;;;;15.59;100.00;99114.72;677217;29;1246;-60
2023/08/01 00:17:28;;;;;;;4.50;1.60;;;;;;;15.58;100.00;99107.75;679344;29;884;-61
2023/08/01 00:17:49;;;;;;;3.47;1.30;;;;;;;15.64;100.00;99111.84;678460;29;785;-61
2023/08/01 00:18:09;;;;;;;2.88;1.27;;;;;;;15.65;100.00;99114.41;677316;29;1514;-61
2023/08/01 00:18:29;;;;;;;2.90;1.20;;;;;;;15.62;100.00;99111.94;678717;29;889;-61
2023/08/01 00:18:50;;;;;;;2.92;1.30;;;;;;;15.61;100.00;99117.28;677867;28;4560;-60
2023/08/01 00:19:10;;;;;;;2.73;1.20;;;;;;;15.65;100.00;99111.75;677456;29;1220;-61
2023/08/01 00:19:31;;;;;;;3.08;1.20;;;;;;;15.62;100.00;99109.28;676830;29;968;-61
2023/08/01 00:19:51;;;;;;;3.67;1.40;;;;;;;15.61;100.00;99107.56;677529;29;921;-62
2023/08/01 00:20:12;;;;;;;3.50;1.53;;;;;;;15.59;100.00;99109.44;677371;29;2453;-61
2023/08/01 00:20:32;;;;;;;3.30;1.52;;;;;;;15.62;100.00;99111.09;678423;29;949;-62
2023/08/01 00:20:53;;;;;;;2.37;1.13;;;;;;;15.63;100.00;99105.72;677958;29;901;-61
2023/08/01 00:21:14;;;;;;;4.57;1.30;;;;;;;15.62;100.00;99103.19;680290;29;941;-61
2023/08/01 00:21:34;;;;;;;3.97;1.40;;;;;;;15.63;100.00;99100.47;680810;29;1080;-61
2023/08/01 00:21:54;;;;;;;2.63;1.33;;;;;;;15.63;100.00;99099.59;675476;29;4490;-61
2023/08/01 00:22:15;;;;;;;3.58;1.30;;;;;;;15.65;100.00;99103.03;677457;29;1326;-61
2023/08/01 00:22:35;;;;;;;3.33;1.47;;;;;;;15.63;100.00;99102.22;677391;29;786;-62
2023/08/01 00:22:58;;;;;;;3.45;1.52;;;;;;;15.62;100.00;99093.47;676890;29;1768;-62
2023/08/01 00:23:18;;;;;;;3.90;1.60;;;;;;;15.62;100.00;99097.91;677348;29;940;-61
2023/08/01 00:23:38;;;;;;;3.30;1.40;;;;;;;15.60;100.00;99095.34;677177;29;813;-61
2023/08/01 00:23:59;;;;;;;2.63;1.40;;;;;;;15.59;100.00;99098.91;678118;28;1826;-61
2023/08/01 00:24:19;;;;;;;2.83;1.20;;;;;;;15.60;100.00;99092.72;680668;29;975;-62
2023/08/01 00:24:39;;;;;;;3.42;1.40;;;;;;;15.60;100.00;99099.75;677659;29;862;-60
2023/08/01 00:25:00;;;;;;;2.93;1.50;;;;;;;15.58;100.00;99097.19;678752;28;4693;-61
2023/08/01 00:25:20;;;;;;;3.90;1.60;;;;;;;15.57;100.00;99092.84;680013;29;968;-60
2023/08/01 00:25:41;;;;;;;4.53;1.60;;;;;;;15.62;100.00;99097.91;679805;28;1025;-62
2023/08/01 00:26:01;;;;;;;3.63;1.63;;;;;;;15.61;100.00;99101.47;678126;28;1841;-62
2023/08/01 00:26:21;;;;;;;3.97;1.70;;;;;;;15.59;100.00;99101.56;678904;29;1954;-60
2023/08/01 00:26:42;;;;;;;4.60;1.73;;;;;;;15.60;100.00;99099.75;679318;29;1078;-62
2023/08/01 00:27:02;;;;;;;4.03;1.60;;;;;;;15.59;100.00;99098.03;680014;28;1791;-59
2023/08/01 00:27:24;;;;;;;3.97;1.63;;;;;;;15.58;100.00;99102.47;676353;29;1139;-60
2023/08/01 00:27:44;;;;;;;4.18;1.80;;;;;;;15.58;100.00;99094.56;673857;29;4516;-62
2023/08/01 00:28:04;;;;;;;3.60;1.60;;;;;;;15.58;100.00;99099.00;674715;29;1834;-61
2023/08/01 00:28:27;;;;;;;5.00;1.92;;;;;;;15.59;100.00;99096.28;674392;29;937;-60
2023/08/01 00:28:49;;;;;;;4.68;2.10;;;;;;;15.62;100.00;99092.66;672852;29;2018;-62
2023/08/01 00:29:09;;;;;;;4.20;1.83;;;;;;;15.61;100.00;99097.03;673930;29;2005;-61
2023/08/01 00:29:30;;;;;;;4.30;2.10;;;;;;;15.60;100.00;99081.31;676661;29;830;-61
2023/08/01 00:29:50;;;;;;;4.03;1.93;;;;;;;15.61;100.00;99083.88;675017;29;883;-60
2023/08/01 00:30:11;;;;;;;4.38;1.80;;;;;;;15.60;100.00;99078.69;672399;29;1873;-61
2023/08/01 00:30:31;;;;;;;4.70;1.77;;;;;;;15.58;100.00;99067.41;672644;29;933;-61
2023/08/01 00:31:10;;;;;;;4.70;1.90;;;;;;;15.60;100.00;99063.75;671743;29;4396;-61
2023/08/01 00:31:30;;;;;;;4.07;1.92;;;;;;;15.67;100.00;99064.25;678683;29;760;-60
2023/08/01 00:31:50;;;;;;;5.60;2.20;;;;;;;15.64;100.00;99067.91;676280;29;1173;-60
2023/08/01 00:32:11;;;;;;;6.53;1.98;;;;;;;15.61;100.00;99057.53;676558;29;1728;-61
2023/08/01 00:32:31;;;;;;;6.00;1.80;;;;;;;15.61;100.00;99057.53;678954;29;1158;-62
2023/08/01 00:32:54;;;;;;;4.63;1.83;;;;;;;15.61;100.00;99054.91;678651;29;858;-61
2023/08/01 00:33:14;;;;;;;4.78;2.08;;;;;;;15.60;100.00;99049.72;678681;29;913;-61
2023/08/01 00:33:35;;;;;;;4.60;2.00;;;;;;;15.60;100.00;99047.94;679560;29;1539;-61
2023/08/01 00:33:55;;;;;;;4.40;1.90;;;;;;;15.60;100.00;99052.34;675578;29;4472;-61
2023/08/01 00:34:16;;;;;;;5.13;2.00;;;;;;;15.63;100.00;99057.44;676182;29;1390;-60
2023/08/01 00:34:36;;;;;;;4.87;2.00;;;;;;;15.61;100.00;99054.91;674844;29;842;-61
2023/08/01 00:34:57;;;;;;;5.50;2.17;;;;;;;15.61;100.00;99062.81;674372;29;1471;-61
2023/08/01 00:35:17;;;;;;;5.15;2.20;;;;;;;15.62;100.00;99061.88;676636;29;870;-63
2023/08/01 00:35:38;;;;;;;4.97;2.17;;;;;;;15.62;100.00;99064.50;676635;29;932;-60
2023/08/01 00:35:58;;;;;;;5.80;2.10;;;;;;;15.62;100.00;99069.78;677733;29;2123;-60
2023/08/01 00:36:19;;;;;;;7.57;2.10;;;;;;;15.62;100.00;99066.31;679186;29;959;-62
2023/08/01 00:36:39;;;;;;;6.32;2.28;;;;;;;15.62;100.00;99071.56;678826;29;869;-63
2023/08/01 00:36:59;;;;;;;4.70;2.20;;;;;;;15.61;100.00;99068.06;677279;29;4482;-61
2023/08/01 00:37:20;;;;;;;5.35;2.15;;;;;;;15.71;100.00;99070.25;679132;29;1193;-62
2023/08/01 00:37:41;;;;;;;6.13;2.57;;;;;;;15.72;100.00;99071.94;678940;29;1142;-62
2023/08/01 00:38:01;;;;;;;5.85;2.38;;;;;;;15.71;100.00;99070.25;675088;29;1566;-62
2023/08/01 00:38:21;;;;;;;4.87;1.90;;;;;;;15.69;100.00;99067.69;676516;29;924;-62
2023/08/01 00:38:43;;;;;;;5.93;2.17;;;;;;;15.67;100.00;99069.53;676182;29;5359;-61
2023/08/01 00:39:03;;;;;;;5.63;2.20;;;;;;;15.66;100.00;99076.59;672410;29;1766;-60
2023/08/01 00:39:24;;;;;;;5.90;2.10;;;;;;;15.66;100.00;99070.50;674192;29;1083;-60
2023/08/01 00:39:44;;;;;;;4.97;2.20;;;;;;;15.64;100.00;99069.69;677067;29;4455;-61
2023/08/01 00:40:05;;;;;;;6.17;2.00;;;;;;;15.63;100.00;99070.63;678156;29;1957;-62
2023/08/01 00:40:33;;;;;;;6.03;2.00;;;;;;;15.62;100.00;99072.41;676446;29;1360;-61
2023/08/01 00:40:54;;;;;;;6.65;2.15;;;;;;;15.62;100.00;99077.69;678342;29;1265;-61
2023/08/01 00:41:14;;;;;;;5.20;2.20;;;;;;;15.62;100.00;99072.41;674304;29;1619;-60
2023/08/01 00:41:35;;;;;;;4.75;2.20;;;;;;;15.60;100.00;99071.66;673559;29;2433;-63
2023/08/01 00:41:56;;;;;;;5.83;2.47;;;;;;;15.64;100.00;99080.22;672356;29;2294;-62
2023/08/01 00:42:16;;;;;;;6.20;2.35;;;;;;;15.60;100.00;99074.28;671828;29;1615;-59
2023/08/01 00:42:37;;;;;;;6.20;2.30;;;;;;;15.63;100.00;99082.03;672470;29;1996;-63
2023/08/01 00:42:58;;;;;;;5.53;2.30;;;;;;;15.63;100.00;99078.53;672281;29;4338;-62
2023/08/01 00:43:19;;;;;;;4.93;2.13;;;;;;;15.63;100.00;99078.53;675289;29;1555;-62
2023/08/01 00:43:39;;;;;;;5.80;2.30;;;;;;;15.61;100.00;99078.59;675922;29;1486;-63
2023/08/01 00:44:00;;;;;;;6.10;2.30;;;;;;;15.62;100.00;99076.84;674930;29;1766;-63
2023/08/01 00:44:20;;;;;;;5.67;2.20;;;;;;;15.62;100.00;99076.84;678603;29;786;-61
2023/08/01 00:44:40;;;;;;;5.57;2.13;;;;;;;15.62;100.00;99080.31;676979;29;1161;-62
2023/08/01 00:45:01;;;;;;;7.10;2.27;;;;;;;15.66;100.00;99071.31;676308;29;1938;-62
2023/08/01 00:45:24;;;;;;;6.65;2.28;;;;;;;15.66;100.00;99071.31;678627;29;854;-62
2023/08/01 00:45:45;;;;;;;5.38;2.25;;;;;;;15.63;100.00;99078.53;677579;29;4503;-61
2023/08/01 00:46:08;;;;;;;4.82;2.20;;;;;;;15.65;100.00;99077.53;675624;29;1776;-60
2023/08/01 00:46:29;;;;;;;5.80;2.28;;;;;;;15.68;100.00;99080.94;677592;29;1891;-62
2023/08/01 00:46:49;;;;;;;5.22;2.40;;;;;;;15.66;100.00;99081.03;677969;29;1170;-63
2023/08/01 00:47:10;;;;;;;4.85;2.17;;;;;;;15.64;100.00;99080.22;676928;29;1472;-62
2023/08/01 00:47:30;;;;;;;5.05;1.98;;;;;;;15.63;100.00;99087.28;677795;29;901;-62
2023/08/01 00:47:51;;;;;;;4.50;2.10;;;;;;;15.62;100.00;99082.94;676975;29;1341;-62
2023/08/01 00:48:12;;;;;;;4.93;1.95;;;;;;;15.62;100.00;99082.94;674999;29;1153;-63
2023/08/01 00:48:33;;;;;;;6.37;2.07;;;;;;;15.65;100.00;99080.16;672983;29;1485;-62
2023/08/01 00:48:57;;;;;;;5.53;2.00;;;;;;;15.65;100.00;99087.22;673005;29;4399;-63
2023/08/01 00:49:18;;;;;;;5.25;2.00;;;;;;;15.63;100.00;99079.41;670261;29;1051;-63
2023/08/01 00:49:38;;;;;;;5.00;2.10;;;;;;;15.69;100.00;99075.59;672995;29;759;-62
2023/08/01 00:49:59;;;;;;;4.32;2.00;;;;;;;15.76;100.00;99078.78;673378;29;1286;-63
2023/08/01 00:50:20;;;;;;;4.30;2.00;;;;;;;15.73;100.00;99069.22;675190;29;909;-62
2023/08/01 00:50:40;;;;;;;4.95;2.20;;;;;;;15.74;100.00;99054.28;678135;29;1652;-62
2023/08/01 00:51:05;;;;;;;3.92;2.13;;;;;;;15.74;100.00;99054.28;677003;29;1873;-62
2023/08/01 00:51:26;;;;;;;5.65;2.20;;;;;;;15.71;100.00;99043.91;675241;29;1336;-61
2023/08/01 00:51:47;;;;;;;6.55;2.17;;;;;;;15.69;100.00;99033.44;675768;29;4352;-62
2023/08/01 00:52:11;;;;;;;4.83;2.03;;;;;;;15.68;100.00;99029.09;674357;29;1856;-63
2023/08/01 00:52:31;;;;;;;5.82;2.00;;;;;;;15.72;100.00;99024.53;673804;29;1060;-62
2023/08/01 00:52:52;;;;;;;5.00;2.10;;;;;;;15.69;100.00;99024.66;671146;29;1297;-63
2023/08/01 00:53:13;;;;;;;4.95;1.90;;;;;;;15.72;100.00;99040.34;672046;29;1730;-62
2023/08/01 00:53:34;;;;;;;4.95;2.13;;;;;;;15.71;100.00;99038.63;676530;29;873;-62
2023/08/01 00:53:55;;;;;;;4.50;2.10;;;;;;;15.70;100.00;99039.56;674192;29;1392;-63
2023/08/01 00:54:16;;;;;;;5.60;2.30;;;;;;;15.68;100.00;99033.53;674640;29;1279;-62
2023/08/01 00:54:36;;;;;;;6.67;2.47;;;;;;;15.66;100.00;99030.97;677491;29;874;-62
2023/08/01 00:54:57;;;;;;;6.65;2.50;;;;;;;15.65;100.00;99030.09;677808;28;4497;-62
2023/08/01 00:55:18;;;;;;;4.70;2.47;;;;;;;15.63;100.00;99021.44;673990;29;1233;-62
2023/08/01 00:55:39;;;;;;;6.13;2.70;;;;;;;15.61;100.00;99011.91;673288;29;862;-61
2023/08/01 00:56:00;;;;;;;4.45;2.30;;;;;;;15.60;100.00;99003.19;672040;29;1299;-61
2023/08/01 00:56:20;;;;;;;4.95;2.40;;;;;;;15.61;100.00;98991.69;675449;29;1277;-62
2023/08/01 00:56:42;;;;;;;6.00;2.80;;;;;;;15.66;100.00;98999.38;671332;29;1150;-62
2023/08/01 00:57:03;;;;;;;5.13;2.63;;;;;;;15.71;100.00;98993.84;668715;29;1714;-62
2023/08/01 00:57:24;;;;;;;5.97;2.40;;;;;;;15.68;100.00;98992.22;673374;29;2080;-62
2023/08/01 00:57:44;;;;;;;5.90;2.60;;;;;;;15.68;100.00;98996.66;670818;29;4445;-61
2023/08/01 00:58:04;;;;;;;6.10;2.90;;;;;;;15.66;100.00;99002.84;673787;29;1934;-61
2023/08/01 00:58:25;;;;;;;6.13;2.97;;;;;;;15.67;100.00;98998.41;677360;29;962;-62
2023/08/01 00:58:46;;;;;;;6.20;2.85;;;;;;;15.68;100.00;98999.28;681539;29;897;-61
2023/08/01 00:59:06;;;;;;;6.45;2.75;;;;;;;15.65;100.00;99003.75;679733;28;1689;-62
2023/08/01 00:59:26;;;;;;;6.07;2.90;;;;;;;15.65;100.00;99011.66;679974;28;1127;-61
2023/08/01 00:59:47;;;;;;;7.05;3.00;;;;;;;15.64;100.00;99007.31;681919;29;877;-62
2023/08/01 01:00:08;;;;;;;7.97;3.17;;;;;;;15.63;100.00;99007.41;680158;29;1821;-62
2023/08/01 01:00:29;;;;;;;6.85;2.85;;;;;;;15.63;100.00;99010.03;678939;29;1094;-62
2023/08/01 01:00:50;;;;;;;7.13;2.80;;;;;;;15.62;100.00;99014.47;676389;29;4518;-61
2023/08/01 01:01:11;;;;;;;7.25;2.83;;;;;;;15.63;100.00;99020.56;676094;29;1094;-62
2023/08/01 01:01:31;;;;;;;6.20;2.72;;;;;;;15.62;100.00;99021.53;678131;29;874;-62
2023/08/01 01:01:51;;;;;;;6.07;2.80;;;;;;;15.60;100.00;99018.97;679134;29;1069;-62
2023/08/01 01:02:12;;;;;;;6.53;2.63;;;;;;;15.63;100.00;99021.44;676155;29;1908;-60
2023/08/01 01:02:33;;;;;;;6.20;2.70;;;;;;;15.63;100.00;99021.44;679757;29;929;-61
2023/08/01 01:02:54;;;;;;;5.85;2.80;;;;;;;15.64;100.00;99027.56;677465;29;1646;-61
2023/08/01 01:03:16;;;;;;;5.47;2.60;;;;;;;15.73;100.00;99021.81;676867;29;1731;-62
2023/08/01 01:03:36;;;;;;;5.57;2.70;;;;;;;15.74;100.00;99023.53;677244;29;835;-62
2023/08/01 01:03:57;;;;;;;5.07;2.92;;;;;;;15.76;100.00;99016.38;676118;29;4633;-62
2023/08/01 01:04:17;;;;;;;6.90;2.90;;;;;;;15.80;100.00;99025.03;676618;29;870;-62
2023/08/01 01:04:40;;;;;;;8.07;2.78;;;;;;;15.74;100.00;99022.66;676258;29;1001;-62
2023/08/01 01:05:02;;;;;;;7.50;3.10;;;;;;;15.75;100.00;99014.66;675119;29;1704;-60
2023/08/01 01:05:25;;;;;;;6.57;2.90;;;;;;;15.72;100.00;99019.28;675679;29;877;-60
2023/08/01 01:06:11;;;;;;;5.35;2.88;;;;;;;15.73;100.00;99016.53;677043;29;858;-60
2023/08/01 01:06:44;;;;;;;6.43;3.13;;;;;;;15.70;100.00;99018.47;677333;29;1915;-61
2023/08/01 01:07:06;;;;;;;6.15;3.20;;;;;;;15.67;100.00;99014.22;676145;29;4749;-61
2023/08/01 01:07:28;;;;;;;6.80;3.05;;;;;;;15.66;100.00;99020.44;677363;29;893;-62
2023/08/01 01:07:50;;;;;;;6.53;3.13;;;;;;;15.70;100.00;99019.34;678632;29;1341;-62
2023/08/01 01:08:10;;;;;;;6.95;3.30;;;;;;;15.71;100.00;99017.56;677708;29;1714;-61
2023/08/01 01:08:31;;;;;;;6.35;3.00;;;;;;;15.74;100.00;99018.25;678686;29;830;-59
2023/08/01 01:08:51;;;;;;;6.80;3.03;;;;;;;15.72;100.00;99012.19;678555;29;1242;-60
2023/08/01 01:09:19;;;;;;;7.00;3.40;;;;;;;15.72;100.00;99006.94;672514;29;1842;-63
2023/08/01 01:09:39;;;;;;;7.13;3.33;;;;;;;15.74;100.00;99013.00;673698;29;1123;-61
2023/08/01 01:09:59;;;;;;;6.97;3.33;;;;;;;15.70;100.00;99003.53;670848;29;4584;-60
2023/08/01 01:10:20;;;;;;;6.20;3.17;;;;;;;15.69;100.00;99007.09;670883;29;787;-61
2023/08/01 01:10:40;;;;;;;6.27;3.37;;;;;;;15.69;100.00;99004.47;670795;29;875;-61
2023/08/01 01:11:01;;;;;;;7.20;3.43;;;;;;;15.75;100.00;99005.94;671536;29;1872;-61
2023/08/01 01:11:21;;;;;;;7.72;3.47;;;;;;;15.71;100.00;99012.28;675861;29;1059;-60
2023/08/01 01:11:42;;;;;;;6.70;3.60;;;;;;;15.70;100.00;99011.44;676299;29;1447;-61
2023/08/01 01:12:04;;;;;;;6.22;3.22;;;;;;;15.69;100.00;99014.13;677252;29;2134;-62
2023/08/01 01:12:24;;;;;;;7.38;3.45;;;;;;;15.66;100.00;99017.81;678932;29;1249;-61
2023/08/01 01:12:44;;;;;;;7.97;3.53;;;;;;;15.65;100.00;99009.03;677903;29;4638;-62
2023/08/01 01:13:05;;;;;;;8.13;3.50;;;;;;;15.66;100.00;99010.75;677635;29;1856;-61
2023/08/01 01:13:25;;;;;;;7.57;3.70;;;;;;;15.67;100.00;99014.22;679540;29;1054;-61
2023/08/01 01:13:46;;;;;;;8.65;3.85;;;;;;;15.70;100.00;99015.84;679637;29;890;-61
2023/08/01 01:14:06;;;;;;;7.20;3.60;;;;;;;15.74;100.00;99017.38;675421;29;1693;-60
2023/08/01 01:14:27;;;;;;;7.60;3.63;;;;;;;15.75;100.00;99011.19;676422;29;1150;-62
2023/08/01 01:14:47;;;;;;;7.37;3.50;;;;;;;15.73;100.00;99006.00;676186;29;1047;-61
2023/08/01 01:15:08;;;;;;;7.73;3.40;;;;;;;15.71;100.00;99007.84;672056;29;1902;-61
2023/08/01 01:15:29;;;;;;;7.10;3.30;;;;;;;15.71;100.00;99004.38;673767;29;910;-62
2023/08/01 01:15:49;;;;;;;8.33;3.73;;;;;;;15.72;100.00;99003.47;673760;29;4404;-62
2023/08/01 01:16:09;;;;;;;6.83;3.50;;;;;;;15.69;100.00;99001.84;672295;29;1877;-62
2023/08/01 01:16:30;;;;;;;6.20;3.03;;;;;;;15.68;100.00;99005.38;675621;29;1361;-62
2023/08/01 01:16:51;;;;;;;7.23;3.23;;;;;;;15.66;100.00;98996.72;676345;29;882;-61
2023/08/01 01:17:12;;;;;;;6.95;3.45;;;;;;;15.66;100.00;99008.09;676692;29;2241;-62
2023/08/01 01:17:32;;;;;;;8.05;3.53;;;;;;;15.68;100.00;99005.38;679109;29;849;-61
2023/08/01 01:17:53;;;;;;;7.60;3.40;;;;;;;15.68;100.00;99013.28;679322;29;992;-61
2023/08/01 01:18:13;;;;;;;7.70;3.37;;;;;;;15.66;100.00;99007.28;679788;28;1824;-60
2023/08/01 01:18:33;;;;;;;7.78;3.50;;;;;;;15.68;100.00;99007.19;677642;29;1177;-60
2023/08/01 01:18:54;;;;;;;6.70;3.60;;;;;;;15.73;100.00;99007.78;675240;29;4416;-61
2023/08/01 01:19:15;;;;;;;6.60;3.50;;;;;;;15.78;100.00;99005.75;674234;29;2190;-61
2023/08/01 01:19:35;;;;;;;5.90;3.30;;;;;;;15.75;100.00;99008.56;676439;29;1381;-61
2023/08/01 01:19:56;;;;;;;7.23;3.90;;;;;;;15.72;100.00;99011.38;673397;29;1271;-61
2023/08/01 01:20:21;;;;;;;6.05;3.83;;;;;;;15.70;100.00;99002.69;669519;29;1699;-61
2023/08/01 01:20:41;;;;;;;7.35;3.78;;;;;;;15.69;100.00;99008.88;673751;29;892;-60
2023/08/01 01:21:01;;;;;;;6.80;3.53;;;;;;;15.68;100.00;99012.44;671825;29;1763;-61
2023/08/01 01:21:22;;;;;;;7.03;3.57;;;;;;;15.69;100.00;99015.00;672005;29;1389;-61
2023/08/01 01:21:43;;;;;;;7.27;3.80;;;;;;;15.75;100.00;99003.28;673609;29;4406;-61
2023/08/01 01:22:08;;;;;;;6.50;3.60;;;;;;;15.72;100.00;98998.19;673408;29;1443;-61
2023/08/01 01:22:30;;;;;;;7.20;3.75;;;;;;;15.71;100.00;98996.47;674473;29;933;-61
2023/08/01 01:22:55;;;;;;;7.35;3.90;;;;;;;15.70;100.00;98998.28;676341;29;1168;-60
2023/08/01 01:23:19;;;;;;;7.88;3.50;;;;;;;15.71;100.00;98996.47;676171;29;2217;-59
2023/08/01 01:23:40;;;;;;;6.25;3.30;;;;;;;15.70;100.00;98997.41;676599;29;965;-60
2023/08/01 01:24:02;;;;;;;6.97;3.65;;;;;;;15.71;100.00;98996.47;676561;29;1904;-60
2023/08/01 01:24:24;;;;;;;7.05;3.22;;;;;;;15.71;100.00;98996.47;676690;29;1328;-62
2023/08/01 01:24:46;;;;;;;6.40;3.10;;;;;;;15.69;100.00;98995.69;677487;29;4590;-61
2023/08/01 01:25:08;;;;;;;6.63;3.03;;;;;;;15.69;100.00;98998.31;676534;29;2308;-59
2023/08/01 01:25:29;;;;;;;5.82;3.30;;;;;;;15.70;100.00;99000.03;675452;29;1950;-59
2023/08/01 01:25:51;;;;;;;6.60;3.50;;;;;;;15.70;100.00;98995.66;674651;29;976;-60
2023/08/01 01:26:13;;;;;;;6.18;3.17;;;;;;;15.70;100.00;99000.91;674362;29;2005;-61
2023/08/01 01:26:34;;;;;;;5.53;3.22;;;;;;;15.70;100.00;99007.94;674200;29;1911;-61
2023/08/01 01:26:56;;;;;;;5.82;3.28;;;;;;;15.71;100.00;99004.38;673681;29;1283;-60
2023/08/01 01:27:18;;;;;;;5.82;3.13;;;;;;;15.70;100.00;99008.81;676524;29;1253;-61
2023/08/01 01:27:38;;;;;;;6.03;3.03;;;;;;;15.70;100.00;99010.56;673485;29;1380;-62
2023/08/01 01:28:03;;;;;;;5.05;2.75;;;;;;;15.74;100.00;99009.47;672172;29;4516;-61
2023/08/01 01:28:24;;;;;;;5.28;2.80;;;;;;;15.74;100.00;99005.09;673492;29;1181;-62
2023/08/01 01:28:45;;;;;;;6.25;2.80;;;;;;;15.75;100.00;99005.94;673361;29;1483;-62
2023/08/01 01:29:08;;;;;;;5.55;2.63;;;;;;;15.74;100.00;99006.84;674072;29;1988;-62
2023/08/01 01:29:29;;;;;;;4.47;2.72;;;;;;;15.74;100.00;99017.38;677234;29;1204;-62
2023/08/01 01:29:50;;;;;;;5.05;2.70;;;;;;;15.74;100.00;99014.75;674763;29;906;-61
2023/08/01 01:30:12;;;;;;;5.00;2.67;;;;;;;15.73;100.00;99013.03;675460;29;1790;-61
2023/08/01 01:30:33;;;;;;;4.50;2.60;;;;;;;15.79;100.00;99004.84;672894;29;1475;-61
2023/08/01 01:30:55;;;;;;;5.32;2.80;;;;;;;15.83;100.00;99012.50;675416;29;4477;-61
2023/08/01 01:31:16;;;;;;;4.95;2.55;;;;;;;15.84;100.00;99008.13;674070;29;2234;-61
2023/08/01 01:31:37;;;;;;;4.82;2.70;;;;;;;15.93;100.00;99006.75;674664;29;822;-62
2023/08/01 01:31:59;;;;;;;4.30;2.65;;;;;;;15.95;100.00;99003.13;674081;29;1824;-61
2023/08/01 01:32:20;;;;;;;4.38;2.40;;;;;;;15.92;100.00;99005.94;674258;29;1345;-61
2023/08/01 01:32:40;;;;;;;4.85;2.33;;;;;;;15.89;100.00;99006.06;675853;29;917;-62
2023/08/01 01:33:01;;;;;;;4.65;2.47;;;;;;;15.85;100.00;99004.53;677767;29;1587;-62
2023/08/01 01:33:22;;;;;;;4.93;2.38;;;;;;;15.83;100.00;99011.69;678403;29;834;-61
2023/08/01 01:33:42;;;;;;;4.73;2.03;;;;;;;15.79;100.00;99008.34;676694;29;4567;-63
2023/08/01 01:34:03;;;;;;;4.82;2.20;;;;;;;15.85;100.00;99007.16;674269;29;2363;-62
2023/08/01 01:34:24;;;;;;;5.80;2.55;;;;;;;15.94;100.00;99004.03;676109;29;1344;-62
2023/08/01 01:34:45;;;;;;;5.93;2.80;;;;;;;15.96;100.00;99002.19;676303;29;858;-62
2023/08/01 01:35:05;;;;;;;5.85;2.42;;;;;;;15.97;100.00;99003.88;676773;29;945;-62
2023/08/01 01:35:26;;;;;;;3.90;2.08;;;;;;;15.91;100.00;99003.34;678017;29;1036;-62
2023/08/01 01:35:47;;;;;;;3.33;2.05;;;;;;;15.85;100.00;98999.25;679082;29;889;-63
2023/08/01 01:36:07;;;;;;;3.07;1.80;;;;;;;15.88;100.00;99001.75;677855;29;1791;-62
2023/08/01 01:36:29;;;;;;;4.38;1.85;;;;;;;15.88;100.00;98993.84;678484;28;1344;-62
2023/08/01 01:36:49;;;;;;;4.30;1.83;;;;;;;15.87;100.00;98989.50;675536;29;4550;-63
2023/08/01 01:37:10;;;;;;;3.60;1.60;;;;;;;15.87;100.00;98993.91;674671;29;1752;-63
2023/08/01 01:37:30;;;;;;;4.13;1.50;;;;;;;15.88;100.00;98992.97;676598;29;964;-62
2023/08/01 01:37:51;;;;;;;3.78;1.40;;;;;;;15.91;100.00;98991.03;676386;29;2588;-62
2023/08/01 01:38:11;;;;;;;3.40;1.33;;;;;;;15.89;100.00;98985.00;675328;29;2063;-63
2023/08/01 01:38:31;;;;;;;3.50;1.42;;;;;;;15.88;100.00;98990.34;678680;29;1616;-63
2023/08/01 01:38:52;;;;;;;4.10;1.70;;;;;;;15.87;100.00;99002.69;681635;29;5397;-63
2023/08/01 01:39:13;;;;;;;4.07;1.63;;;;;;;15.83;100.00;98990.59;674491;29;1842;-63
2023/08/01 01:39:34;;;;;;;2.73;1.30;;;;;;;15.81;100.00;98995.09;679010;29;1317;-63
2023/08/01 01:39:54;;;;;;;2.33;1.13;;;;;;;15.78;100.00;98998.72;677394;29;4353;-63
2023/08/01 01:40:15;;;;;;;1.40;0.90;;;;;;;15.78;100.00;99003.13;679969;28;885;-63
2023/08/01 01:40:36;;;;;;;1.87;1.00;;;;;;;15.79;100.00;99002.19;676890;29;1130;-64
2023/08/01 01:40:58;;;;;;;2.20;0.95;;;;;;;15.81;100.00;99001.22;676518;29;842;-63